Duckwater, Nevada Weather observations

Data are for 10 minute period ending at time listed.
 Day   Time   Solar   Ave.   Ave.  Ave.  Vector  Max.   Baro.   Total    
  of    of     Rad.   Air    Rel.  Wind   Wind   Wind  Press.  Precip.   
Year   Day            Temp.  Hum.  Speed  Dir.   Gust                    
2015   (PST)   w/m2    F      %     mph   deg.    mph    mb.     in.    
-----------------------------------------------------------------------
  85    7:10    271   45.5    46    8.1   360    12.1   842.9   0.00  
  85    7:20    303   46.6    45    8.2     3    13.2   842.9   0.00  
  85    7:30    330   47.5    44    8.3   359    12.9   842.9   0.00  
  85    7:40    370   48.3    43    8.3   353    12.1   842.9   0.00  
  85    7:50    401   49.8    41    9.0   357    14.5   843.0   0.00  
  85    8:00    436   50.4    40    9.2   356    12.9   843.0   0.00  
  85    8:10    999  999.0   999  999.0   999   999.0   999.0  999.00  
  85    8:20    999  999.0   999  999.0   999   999.0   999.0  999.00  
  85    8:30    999  999.0   999  999.0   999   999.0   999.0  999.00  
  85    8:40    999  999.0   999  999.0   999   999.0   999.0  999.00  
  85    8:50    999  999.0   999  999.0   999   999.0   999.0  999.00  
  85    9:00    999  999.0   999  999.0   999   999.0   999.0  999.00  
  85    9:10    999  999.0   999  999.0   999   999.0   999.0  999.00  
  85    9:20    641   55.6    33    8.7   338    13.0   843.2   0.00  
  85    9:30    601   55.8    33    6.8   338    12.3   843.1   0.00  
  85    9:40    696   57.0    31    6.7     0    12.2   843.1   0.00  
  85    9:50    756   57.9    30    5.6    10    11.4   843.0   0.00  
  85   10:00    784   57.9    30    5.8   322    10.6   842.9   0.00  
  85   10:10    768   58.7    29    4.4   339     9.2   842.8   0.00  
  85   10:20    763   59.3    28    4.1   298     8.3   842.7   0.00  
  85   10:30    805   59.5    28    4.3   284     9.2   842.6   0.00  
  85   10:40    795   60.5    27    4.1     2    13.6   842.5   0.00  
  85   10:50    832   60.4    27    5.6   323    10.1   842.4   0.00  
  85   11:00    870   60.8    26    4.9   273    10.7   842.3   0.00  
  85   11:10    862   61.2    26    3.4   332     9.9   842.2   0.00  
  85   11:20    881   62.4    26    4.0   326     8.6   842.1   0.00  
  85   11:30    863   62.8    25    5.2   335    12.3   842.1   0.00  
  85   11:40    782   63.1    24    2.8   299     7.2   841.9   0.00  
  85   11:50    867   63.8    23    3.7   310     9.1   841.8   0.00  
  85   12:00    880   65.6    22    2.7   325     8.6   841.6   0.00  
  85   12:10    876   65.4    22    3.1   302     8.8   841.5   0.00  
  85   12:20    862   66.1    22    4.5   312     8.6   841.4   0.00  
  85   12:30    860   66.9    21    2.9   329    10.6   841.3   0.00  
  85   12:40    853   67.4    21    4.0   275     7.8   841.1   0.00  
  85   12:50    846   69.2    20    2.5   184     7.2   841.0   0.00  
  85   13:00    826   69.5    19    3.5   158     7.8   840.8   0.00  
  85   13:10    818   69.4    19    3.6   185    11.2   840.6   0.00  
  85   13:20    807   70.0    19    6.0   156    12.5   840.5   0.00  
  85   13:30    778   69.9    19    4.9   154    10.0   840.3   0.00  
  85   13:40    756   70.1    19    5.1   172    10.4   840.3   0.00  
  85   13:50    748   71.5    18    4.3   164     9.0   840.2   0.00  
  85   14:00    726   70.6    18    5.1   195     8.3   840.1   0.00  
  85   14:10    708   69.9    19    5.0   211     9.4   840.0   0.00  
  85   14:20    685   69.4    19    4.3   232    10.7   839.9   0.00  
  85   14:30    663   70.2    18    4.2   238     7.4   839.9   0.00  
  85   14:40    636   71.8    17    4.7   165     8.1   839.8   0.00  
  85   14:50    609   71.4    17    3.9   195     6.9   839.7   0.00  
  85   15:00    578   71.9    17    3.5   187     7.5   839.6   0.00  
  85   15:10    549   71.0    18    5.6   233     8.8   839.5   0.00  
  85   15:20    518   71.0    17    4.4   226     8.6   839.5   0.00  
  85   15:30    485   72.5    15    4.1   185     9.9   839.5   0.00  
  85   15:40    450   72.0    15    2.3    19     5.0   839.4   0.00  
  85   15:50    421   71.9    16    4.9   203     7.8   839.3   0.00  
  85   16:00    386   72.4    15    5.3   188     9.6   839.3   0.00  
  85   16:10    351   72.6    15    5.9   178     9.0   839.2   0.00  
  85   16:20    317   72.5    15    4.9   168     8.1   839.2   0.00  
  85   16:30    281   71.9    15    7.3   170    11.2   839.1   0.00  
  85   16:40    245   71.8    15    6.7   158     9.3   839.1   0.00  
  85   16:50    213   71.3    15    7.4   164    10.4   839.0   0.00  
  85   17:00    181   71.1    15    7.2   167    10.7   839.0   0.00  
  85   17:10    149   70.7    15    6.0   157     8.9   839.0   0.00  
  85   17:20     94   69.9    16    6.3   167     8.7   838.9   0.00  
  85   17:30     37   68.2    16    5.6   167     8.3   839.0   0.00  
  85   17:40     16   66.1    17    5.3   158     8.1   839.0   0.00  
  85   17:50      8   64.5    18    4.5   148     6.7   839.0   0.00  
  85   18:00      7   63.0    19    4.1   138     5.6   839.0   0.00  
  85   18:10      3   62.2    19    3.7   135     5.0   839.1   0.00  
  85   18:20      0   61.4    20    3.8   136     4.9   839.1   0.00  
  85   18:30      0   60.8    21    3.8   137     5.0   839.2   0.00  
  85   18:40      0   59.6    22    2.7   147     4.2   839.3   0.00  
  85   18:50      0   55.2    30    2.8   303     4.2   839.5   0.00  
  85   19:00      0   55.3    28    2.0   351     2.3   839.6   0.00  
  85   19:10      0   55.8    27    1.6    36     2.2   839.7   0.00  
  85   19:20      0   55.0    26    1.2    53     2.9   839.7   0.00  
  85   19:30      0   54.9    26    1.1    56     2.7   839.8   0.00  
  85   19:40      0   53.8    28    0.2    59     1.2   839.8   0.00  
  85   19:50      0   52.9    28    1.3    22     3.2   840.0   0.00  
  85   20:00      0   50.8    32    2.7   343     3.7   840.1   0.00  
  85   20:10      0   51.6    31    2.4   359     3.3   840.2   0.00  
  85   20:20      0   50.6    34    3.2    36     4.5   840.3   0.00  
  85   20:30      0   50.2    34    3.0    18     4.7   840.3   0.00  
  85   20:40      0   48.3    32    6.2   339     9.6   840.4   0.00  
  85   20:50      0   48.7    32    7.3   352     9.3   840.4   0.00  
  85   21:00      0   49.2    32    5.1    17     8.3   840.4   0.00  
  85   21:10      0   48.4    33    5.2    14     8.1   840.6   0.00  
  85   21:20      0   48.5    34    3.4     7     7.3   840.7   0.00  
  85   21:30      0   49.4    35    6.2    17     8.8   840.7   0.00  
  85   21:40      0   49.9    36    7.3    10    11.2   840.7   0.00  
  85   21:50      0   49.9    36    6.4     9     9.1   840.8   0.00  
  85   22:00      0   47.7    40    2.3   198     8.3   840.9   0.00  
  85   22:10      0   46.1    41    1.5   205     3.9   840.9   0.00  
  85   22:20      0   46.2    41    2.9   271     6.7   841.0   0.00  
  85   22:30      0   46.5    41    4.2   327     7.2   841.0   0.00  
  85   22:40      0   46.0    41    3.3   296     6.3   841.0   0.00  
  85   22:50      0   46.3    41    5.4   332    10.4   841.1   0.00  
  85   23:00      0   46.3    41    3.6   327     7.5   841.1   0.00  
  85   23:10      0   45.1    42    3.3   290     6.2   841.1   0.00  
  85   23:20      0   44.6    43    1.4   216     3.7   841.0   0.00  
  85   23:30      0   45.4    43    4.2   306     7.6   841.0   0.00  
  85   23:40      0   45.4    44    2.8   322     6.1   840.9   0.00  
  85   23:50      0   46.1    43    4.0   297     7.4   840.9   0.00  
  86    0:00      0   44.8    45    5.8   316    10.6   840.9   0.00  
  86    0:10      0   44.3    45    4.2   356    11.0   841.0   0.00  
  86    0:20      0   43.6    46    4.0    13     8.9   840.9   0.00  
  86    0:30      0   45.6    44    6.5   359    10.3   840.8   0.00  
  86    0:40      0   45.7    43    7.1   359    10.4   840.9   0.00  
  86    0:50      0   43.3    46    4.9   328     8.3   841.0   0.00  
  86    1:00      0   42.5    47    4.9     8     8.0   840.9   0.00  
  86    1:10      0   41.7    49    4.7   326     9.1   840.9   0.00  
  86    1:20      0   39.0    54    5.2   319     7.5   840.8   0.00  
  86    1:30      0   39.0    53    6.8   350     8.8   840.8   0.00  
  86    1:40      0   39.5    52    3.7   336     7.0   840.7   0.00  
  86    1:50      0   41.2    50    5.7     8    10.9   840.6   0.00  
  86    2:00      0   41.9    50    5.8     7     9.6   840.6   0.00  
  86    2:10      0   42.5    49    5.7    16     8.8   840.6   0.00  
  86    2:20      0   42.2    49    5.2   354     9.1   840.5   0.00  
  86    2:30      0   41.0    50    4.5   332     8.0   840.6   0.00  
  86    2:40      0   40.9    51    6.3   346     9.4   840.6   0.00  
  86    2:50      0   40.7    51    5.7     1     9.9   840.5   0.00  
  86    3:00      0   39.7    53    4.5    10     8.6   840.5   0.00  
  86    3:10      0   39.0    54    5.6   356     8.3   840.5   0.00  
  86    3:20      0   39.5    52    5.3   342     8.5   840.6   0.00  
  86    3:30      0   38.6    55    2.9   344     6.8   840.5   0.00  
  86    3:40      0   39.2    55    5.7    10     9.1   840.5   0.00  
  86    3:50      0   40.3    53    6.9    15    11.3   840.5   0.00  
  86    4:00      0   40.9    52    6.2   358    10.2   840.4   0.00  
  86    4:10      0   40.5    52    4.8   338     7.2   840.4   0.00  
  86    4:20      0   40.1    53    4.0   332     7.1   840.5   0.00  
  86    4:30      0   40.4    53    5.5   333     9.6   840.5   0.00  
  86    4:40      0   40.0    53    5.6   348     9.6   840.6   0.00  
  86    4:50      0   37.8    56    5.5   341     8.0   840.6   0.00  
  86    5:00      0   37.2    57    5.1   342     7.3   840.7   0.00  
  86    5:10      0   36.8    58    4.2   342     7.2   840.7   0.00  
  86    5:20      0   36.6    59    2.5     6     6.9   840.7   0.00  
  86    5:30      2   36.5    60    1.0    38     3.3   840.8   0.00  
  86    5:40      4   36.5    59    3.7   348     5.0   840.8   0.00  
  86    5:50      8   37.5    58    5.7     6    10.2   840.8   0.00  
  86    6:00      9   38.0    57    6.8    12    10.0   840.8   0.00  
  86    6:10     63   38.7    55    5.4   341     8.8   840.8   0.00  
  86    6:20    103   39.6    53    4.6   329     7.2   840.9   0.00  
  86    6:30    138   41.6    52    5.6   350    10.3   841.0   0.00  
  86    6:40    170   43.8    48    6.1    11     9.8   840.9   0.00  
  86    6:50    203   44.6    47    4.8   359     8.6   840.9   0.00  
  86    7:00    236   45.2    46    4.9   338     7.5   840.8   0.00  

Return to Duckwater graphs page.


Western Regional Climate Center,wrcc@dri.edu